sensor_id;sensor_type;location;lat;lon;timestamp;temperature;humidity
38941;DHT22;43236;47.208;7.518;2022-07-31T00:02:40;22.00;94.50
38941;DHT22;43236;47.208;7.518;2022-07-31T00:05:29;22.00;94.60
38941;DHT22;43236;47.208;7.518;2022-07-31T00:08:18;21.90;94.80
38941;DHT22;43236;47.208;7.518;2022-07-31T00:11:05;21.90;94.80
38941;DHT22;43236;47.208;7.518;2022-07-31T00:13:52;21.90;94.90
38941;DHT22;43236;47.208;7.518;2022-07-31T00:16:39;21.80;95.00
38941;DHT22;43236;47.208;7.518;2022-07-31T00:19:26;21.80;94.90
38941;DHT22;43236;47.208;7.518;2022-07-31T00:22:13;21.80;94.90
38941;DHT22;43236;47.208;7.518;2022-07-31T00:25:01;21.80;95.00
38941;DHT22;43236;47.208;7.518;2022-07-31T00:27:48;21.80;95.00
38941;DHT22;43236;47.208;7.518;2022-07-31T00:30:36;21.80;95.00
38941;DHT22;43236;47.208;7.518;2022-07-31T00:33:23;21.70;95.40
38941;DHT22;43236;47.208;7.518;2022-07-31T00:36:10;21.70;95.70
38941;DHT22;43236;47.208;7.518;2022-07-31T00:38:57;21.70;95.60
38941;DHT22;43236;47.208;7.518;2022-07-31T00:41:46;21.70;95.70
38941;DHT22;43236;47.208;7.518;2022-07-31T00:44:34;21.70;95.80
38941;DHT22;43236;47.208;7.518;2022-07-31T00:47:21;21.70;95.70
38941;DHT22;43236;47.208;7.518;2022-07-31T00:50:10;21.60;95.60
38941;DHT22;43236;47.208;7.518;2022-07-31T00:52:57;21.60;95.50
38941;DHT22;43236;47.208;7.518;2022-07-31T00:55:44;21.60;95.50
38941;DHT22;43236;47.208;7.518;2022-07-31T00:58:32;21.60;95.80
38941;DHT22;43236;47.208;7.518;2022-07-31T01:01:19;21.60;95.90
38941;DHT22;43236;47.208;7.518;2022-07-31T01:04:06;21.50;95.80
38941;DHT22;43236;47.208;7.518;2022-07-31T01:06:54;21.60;95.80
38941;DHT22;43236;47.208;7.518;2022-07-31T01:09:41;21.50;96.00
38941;DHT22;43236;47.208;7.518;2022-07-31T01:12:34;21.40;96.00
38941;DHT22;43236;47.208;7.518;2022-07-31T01:15:26;21.40;96.10
38941;DHT22;43236;47.208;7.518;2022-07-31T01:18:15;21.40;96.10
38941;DHT22;43236;47.208;7.518;2022-07-31T01:21:06;21.40;96.00
38941;DHT22;43236;47.208;7.518;2022-07-31T01:24:14;21.30;96.20
38941;DHT22;43236;47.208;7.518;2022-07-31T01:27:11;21.40;96.10
38941;DHT22;43236;47.208;7.518;2022-07-31T01:30:08;21.30;96.30
38941;DHT22;43236;47.208;7.518;2022-07-31T01:32:56;21.30;96.30
38941;DHT22;43236;47.208;7.518;2022-07-31T01:35:51;21.30;96.10
38941;DHT22;43236;47.208;7.518;2022-07-31T01:38:43;21.30;96.60
38941;DHT22;43236;47.208;7.518;2022-07-31T01:41:35;21.20;96.70
38941;DHT22;43236;47.208;7.518;2022-07-31T01:44:25;21.20;96.80
38941;DHT22;43236;47.208;7.518;2022-07-31T01:47:18;21.20;96.70
38941;DHT22;43236;47.208;7.518;2022-07-31T01:50:07;21.20;96.90
38941;DHT22;43236;47.208;7.518;2022-07-31T01:52:56;21.20;96.90
38941;DHT22;43236;47.208;7.518;2022-07-31T01:55:46;21.10;97.00
38941;DHT22;43236;47.208;7.518;2022-07-31T01:58:36;21.10;97.00
38941;DHT22;43236;47.208;7.518;2022-07-31T02:01:24;21.10;97.50
38941;DHT22;43236;47.208;7.518;2022-07-31T02:04:14;21.10;97.10
38941;DHT22;43236;47.208;7.518;2022-07-31T02:07:02;21.10;97.20
38941;DHT22;43236;47.208;7.518;2022-07-31T02:09:51;21.10;97.20
38941;DHT22;43236;47.208;7.518;2022-07-31T02:12:40;21.10;97.30
38941;DHT22;43236;47.208;7.518;2022-07-31T02:15:28;21.10;97.20
38941;DHT22;43236;47.208;7.518;2022-07-31T02:18:17;21.00;97.10
38941;DHT22;43236;47.208;7.518;2022-07-31T02:21:07;21.00;97.40
38941;DHT22;43236;47.208;7.518;2022-07-31T02:23:54;21.00;97.30
38941;DHT22;43236;47.208;7.518;2022-07-31T02:26:42;21.00;97.20
38941;DHT22;43236;47.208;7.518;2022-07-31T02:29:31;21.00;97.10
38941;DHT22;43236;47.208;7.518;2022-07-31T02:32:19;21.00;97.10
38941;DHT22;43236;47.208;7.518;2022-07-31T02:35:08;21.00;97.10
38941;DHT22;43236;47.208;7.518;2022-07-31T02:37:57;20.90;97.10
38941;DHT22;43236;47.208;7.518;2022-07-31T02:40:45;20.90;97.20
38941;DHT22;43236;47.208;7.518;2022-07-31T02:43:34;20.80;97.40
38941;DHT22;43236;47.208;7.518;2022-07-31T02:46:22;20.80;97.40
38941;DHT22;43236;47.208;7.518;2022-07-31T02:49:09;20.80;97.60
38941;DHT22;43236;47.208;7.518;2022-07-31T02:51:58;20.80;97.70
38941;DHT22;43236;47.208;7.518;2022-07-31T02:54:47;20.80;97.60
38941;DHT22;43236;47.208;7.518;2022-07-31T02:57:35;20.70;97.90
38941;DHT22;43236;47.208;7.518;2022-07-31T03:00:23;20.70;97.70
38941;DHT22;43236;47.208;7.518;2022-07-31T03:03:11;20.70;97.80
38941;DHT22;43236;47.208;7.518;2022-07-31T03:05:58;20.70;97.90
38941;DHT22;43236;47.208;7.518;2022-07-31T03:08:45;20.70;98.00
38941;DHT22;43236;47.208;7.518;2022-07-31T03:11:34;20.70;97.90
38941;DHT22;43236;47.208;7.518;2022-07-31T03:14:22;20.70;98.00
38941;DHT22;43236;47.208;7.518;2022-07-31T03:17:10;20.70;98.10
38941;DHT22;43236;47.208;7.518;2022-07-31T03:19:58;20.60;98.00
38941;DHT22;43236;47.208;7.518;2022-07-31T03:22:45;20.60;98.00
38941;DHT22;43236;47.208;7.518;2022-07-31T03:25:32;20.60;98.00
38941;DHT22;43236;47.208;7.518;2022-07-31T03:28:21;20.60;98.00
38941;DHT22;43236;47.208;7.518;2022-07-31T03:31:08;20.60;98.10
38941;DHT22;43236;47.208;7.518;2022-07-31T03:33:55;20.60;97.90
38941;DHT22;43236;47.208;7.518;2022-07-31T03:36:42;20.50;97.90
38941;DHT22;43236;47.208;7.518;2022-07-31T03:39:30;20.50;98.10
38941;DHT22;43236;47.208;7.518;2022-07-31T03:42:18;20.50;98.00
38941;DHT22;43236;47.208;7.518;2022-07-31T03:45:08;20.40;97.90
38941;DHT22;43236;47.208;7.518;2022-07-31T03:47:56;20.40;98.00
38941;DHT22;43236;47.208;7.518;2022-07-31T03:50:44;20.40;98.10
38941;DHT22;43236;47.208;7.518;2022-07-31T03:53:31;20.40;98.10
38941;DHT22;43236;47.208;7.518;2022-07-31T03:56:18;20.40;98.10
38941;DHT22;43236;47.208;7.518;2022-07-31T03:59:06;20.40;98.20
38941;DHT22;43236;47.208;7.518;2022-07-31T04:01:55;20.40;98.30
38941;DHT22;43236;47.208;7.518;2022-07-31T04:04:42;20.40;98.40
38941;DHT22;43236;47.208;7.518;2022-07-31T04:07:29;20.40;98.50
38941;DHT22;43236;47.208;7.518;2022-07-31T04:10:16;20.40;98.60
38941;DHT22;43236;47.208;7.518;2022-07-31T04:13:04;20.40;98.50
38941;DHT22;43236;47.208;7.518;2022-07-31T04:15:51;20.40;98.50
38941;DHT22;43236;47.208;7.518;2022-07-31T04:18:40;20.40;98.80
38941;DHT22;43236;47.208;7.518;2022-07-31T04:21:27;20.40;99.10
38941;DHT22;43236;47.208;7.518;2022-07-31T04:24:14;20.40;99.20
38941;DHT22;43236;47.208;7.518;2022-07-31T04:27:03;20.40;99.10
38941;DHT22;43236;47.208;7.518;2022-07-31T04:29:50;20.40;99.30
38941;DHT22;43236;47.208;7.518;2022-07-31T04:32:37;20.50;99.40
38941;DHT22;43236;47.208;7.518;2022-07-31T04:35:26;20.50;99.50
38941;DHT22;43236;47.208;7.518;2022-07-31T04:38:13;20.50;99.40
38941;DHT22;43236;47.208;7.518;2022-07-31T04:41:01;20.50;99.40
38941;DHT22;43236;47.208;7.518;2022-07-31T04:43:48;20.60;99.40
38941;DHT22;43236;47.208;7.518;2022-07-31T04:46:35;20.60;99.40
38941;DHT22;43236;47.208;7.518;2022-07-31T04:49:22;20.60;99.40
38941;DHT22;43236;47.208;7.518;2022-07-31T04:52:11;20.70;99.50
38941;DHT22;43236;47.208;7.518;2022-07-31T04:54:58;20.70;99.60
38941;DHT22;43236;47.208;7.518;2022-07-31T04:57:45;20.80;99.80
38941;DHT22;43236;47.208;7.518;2022-07-31T05:00:32;20.80;99.20
38941;DHT22;43236;47.208;7.518;2022-07-31T05:03:19;20.80;99.50
38941;DHT22;43236;47.208;7.518;2022-07-31T05:06:10;20.80;99.80
38941;DHT22;43236;47.208;7.518;2022-07-31T05:08:59;20.80;99.80
38941;DHT22;43236;47.208;7.518;2022-07-31T05:11:46;20.90;99.70
38941;DHT22;43236;47.208;7.518;2022-07-31T05:14:33;20.90;99.90
38941;DHT22;43236;47.208;7.518;2022-07-31T05:17:21;20.90;99.90
38941;DHT22;43236;47.208;7.518;2022-07-31T05:20:09;20.90;99.60
38941;DHT22;43236;47.208;7.518;2022-07-31T05:22:56;20.90;99.40
38941;DHT22;43236;47.208;7.518;2022-07-31T05:25:45;20.90;99.60
38941;DHT22;43236;47.208;7.518;2022-07-31T05:28:32;20.90;99.50
38941;DHT22;43236;47.208;7.518;2022-07-31T05:31:19;21.00;99.70
38941;DHT22;43236;47.208;7.518;2022-07-31T05:34:07;21.00;99.60
38941;DHT22;43236;47.208;7.518;2022-07-31T05:36:54;21.10;99.50
38941;DHT22;43236;47.208;7.518;2022-07-31T05:39:41;21.00;99.30
38941;DHT22;43236;47.208;7.518;2022-07-31T05:42:30;21.00;99.30
38941;DHT22;43236;47.208;7.518;2022-07-31T05:45:17;21.00;99.60
38941;DHT22;43236;47.208;7.518;2022-07-31T05:48:04;21.00;99.70
38941;DHT22;43236;47.208;7.518;2022-07-31T05:50:51;21.10;99.90
38941;DHT22;43236;47.208;7.518;2022-07-31T05:53:39;21.10;99.90
38941;DHT22;43236;47.208;7.518;2022-07-31T05:56:27;21.20;99.90
38941;DHT22;43236;47.208;7.518;2022-07-31T05:59:15;21.20;99.60
38941;DHT22;43236;47.208;7.518;2022-07-31T06:02:02;21.20;99.60
38941;DHT22;43236;47.208;7.518;2022-07-31T06:04:49;21.30;99.60
38941;DHT22;43236;47.208;7.518;2022-07-31T06:07:36;21.30;99.60
38941;DHT22;43236;47.208;7.518;2022-07-31T06:10:24;21.40;99.70
38941;DHT22;43236;47.208;7.518;2022-07-31T06:13:12;21.40;99.40
38941;DHT22;43236;47.208;7.518;2022-07-31T06:16:00;21.50;99.50
38941;DHT22;43236;47.208;7.518;2022-07-31T06:18:47;21.60;99.40
38941;DHT22;43236;47.208;7.518;2022-07-31T06:21:34;21.60;99.70
38941;DHT22;43236;47.208;7.518;2022-07-31T06:24:22;21.60;99.60
38941;DHT22;43236;47.208;7.518;2022-07-31T06:27:10;21.70;99.60
38941;DHT22;43236;47.208;7.518;2022-07-31T06:29:57;21.70;99.90
38941;DHT22;43236;47.208;7.518;2022-07-31T06:32:46;21.60;99.80
38941;DHT22;43236;47.208;7.518;2022-07-31T06:35:33;21.70;99.90
38941;DHT22;43236;47.208;7.518;2022-07-31T06:38:20;21.60;99.80
38941;DHT22;43236;47.208;7.518;2022-07-31T06:41:09;21.60;99.90
38941;DHT22;43236;47.208;7.518;2022-07-31T06:43:56;21.60;99.60
38941;DHT22;43236;47.208;7.518;2022-07-31T06:46:43;21.60;99.70
38941;DHT22;43236;47.208;7.518;2022-07-31T06:49:32;21.60;99.30
38941;DHT22;43236;47.208;7.518;2022-07-31T06:52:19;21.60;98.60
38941;DHT22;43236;47.208;7.518;2022-07-31T06:55:07;21.60;97.90
38941;DHT22;43236;47.208;7.518;2022-07-31T06:57:54;21.60;97.50
38941;DHT22;43236;47.208;7.518;2022-07-31T07:00:41;21.60;97.80
38941;DHT22;43236;47.208;7.518;2022-07-31T07:03:28;21.60;98.10
38941;DHT22;43236;47.208;7.518;2022-07-31T07:06:17;21.60;97.90
38941;DHT22;43236;47.208;7.518;2022-07-31T07:09:04;21.70;97.10
38941;DHT22;43236;47.208;7.518;2022-07-31T07:11:51;21.70;96.40
38941;DHT22;43236;47.208;7.518;2022-07-31T07:14:38;21.80;96.30
38941;DHT22;43236;47.208;7.518;2022-07-31T07:17:25;21.80;95.80
38941;DHT22;43236;47.208;7.518;2022-07-31T07:20:12;21.80;95.70
38941;DHT22;43236;47.208;7.518;2022-07-31T07:23:00;21.80;95.70
38941;DHT22;43236;47.208;7.518;2022-07-31T07:25:48;21.80;95.50
38941;DHT22;43236;47.208;7.518;2022-07-31T07:28:35;21.90;95.30
38941;DHT22;43236;47.208;7.518;2022-07-31T07:31:22;22.00;95.10
38941;DHT22;43236;47.208;7.518;2022-07-31T07:34:09;22.00;94.60
38941;DHT22;43236;47.208;7.518;2022-07-31T07:36:56;22.00;95.10
38941;DHT22;43236;47.208;7.518;2022-07-31T07:39:44;22.00;94.80
38941;DHT22;43236;47.208;7.518;2022-07-31T07:42:31;22.10;95.30
38941;DHT22;43236;47.208;7.518;2022-07-31T07:45:18;22.10;95.10
38941;DHT22;43236;47.208;7.518;2022-07-31T07:48:06;22.20;94.20
38941;DHT22;43236;47.208;7.518;2022-07-31T07:50:53;22.20;94.90
38941;DHT22;43236;47.208;7.518;2022-07-31T07:53:40;22.20;94.50
38941;DHT22;43236;47.208;7.518;2022-07-31T07:56:28;22.30;93.20
38941;DHT22;43236;47.208;7.518;2022-07-31T07:59:15;22.40;93.00
38941;DHT22;43236;47.208;7.518;2022-07-31T08:02:02;22.40;93.30
38941;DHT22;43236;47.208;7.518;2022-07-31T08:04:49;22.50;93.10
38941;DHT22;43236;47.208;7.518;2022-07-31T08:07:38;22.50;92.30
38941;DHT22;43236;47.208;7.518;2022-07-31T08:10:25;22.50;90.90
38941;DHT22;43236;47.208;7.518;2022-07-31T08:13:13;22.60;91.20
38941;DHT22;43236;47.208;7.518;2022-07-31T08:16:00;22.60;92.20
38941;DHT22;43236;47.208;7.518;2022-07-31T08:18:47;22.60;91.90
38941;DHT22;43236;47.208;7.518;2022-07-31T08:21:36;22.70;90.80
38941;DHT22;43236;47.208;7.518;2022-07-31T08:24:24;22.70;91.20
38941;DHT22;43236;47.208;7.518;2022-07-31T08:27:12;22.80;91.30
38941;DHT22;43236;47.208;7.518;2022-07-31T08:30:14;22.80;90.00
38941;DHT22;43236;47.208;7.518;2022-07-31T08:33:01;22.90;88.50
38941;DHT22;43236;47.208;7.518;2022-07-31T08:35:48;22.90;88.80
38941;DHT22;43236;47.208;7.518;2022-07-31T08:38:36;23.00;88.10
38941;DHT22;43236;47.208;7.518;2022-07-31T08:41:23;23.00;88.40
38941;DHT22;43236;47.208;7.518;2022-07-31T08:44:10;23.10;90.00
38941;DHT22;43236;47.208;7.518;2022-07-31T08:46:59;23.10;88.60
38941;DHT22;43236;47.208;7.518;2022-07-31T08:49:47;23.20;87.80
38941;DHT22;43236;47.208;7.518;2022-07-31T08:52:35;23.20;89.40
38941;DHT22;43236;47.208;7.518;2022-07-31T08:55:23;23.30;88.00
38941;DHT22;43236;47.208;7.518;2022-07-31T08:58:10;23.30;87.10
38941;DHT22;43236;47.208;7.518;2022-07-31T09:00:57;23.40;86.80
38941;DHT22;43236;47.208;7.518;2022-07-31T09:03:46;23.50;87.70
38941;DHT22;43236;47.208;7.518;2022-07-31T09:06:33;23.60;87.40
38941;DHT22;43236;47.208;7.518;2022-07-31T09:09:21;23.60;88.90
38941;DHT22;43236;47.208;7.518;2022-07-31T09:12:09;23.70;89.80
38941;DHT22;43236;47.208;7.518;2022-07-31T09:14:56;23.70;89.60
38941;DHT22;43236;47.208;7.518;2022-07-31T09:17:43;23.80;86.60
38941;DHT22;43236;47.208;7.518;2022-07-31T09:20:31;23.90;86.90
38941;DHT22;43236;47.208;7.518;2022-07-31T09:23:19;24.00;86.60
38941;DHT22;43236;47.208;7.518;2022-07-31T09:26:06;24.10;86.80
38941;DHT22;43236;47.208;7.518;2022-07-31T09:28:59;24.30;87.10
38941;DHT22;43236;47.208;7.518;2022-07-31T09:31:46;24.40;87.30
38941;DHT22;43236;47.208;7.518;2022-07-31T09:34:33;24.50;88.10
38941;DHT22;43236;47.208;7.518;2022-07-31T09:37:25;24.50;86.90
38941;DHT22;43236;47.208;7.518;2022-07-31T09:40:12;24.50;88.10
38941;DHT22;43236;47.208;7.518;2022-07-31T09:42:59;24.60;87.80
38941;DHT22;43236;47.208;7.518;2022-07-31T09:45:55;24.60;86.90
38941;DHT22;43236;47.208;7.518;2022-07-31T09:48:48;24.70;87.20
38941;DHT22;43236;47.208;7.518;2022-07-31T09:51:39;24.80;85.70
38941;DHT22;43236;47.208;7.518;2022-07-31T09:54:29;24.90;86.40
38941;DHT22;43236;47.208;7.518;2022-07-31T09:57:16;25.10;84.50
38941;DHT22;43236;47.208;7.518;2022-07-31T10:00:05;25.20;85.00
38941;DHT22;43236;47.208;7.518;2022-07-31T10:02:53;25.30;85.20
38941;DHT22;43236;47.208;7.518;2022-07-31T10:05:41;25.40;85.50
38941;DHT22;43236;47.208;7.518;2022-07-31T10:08:33;25.50;84.40
38941;DHT22;43236;47.208;7.518;2022-07-31T10:11:23;25.50;85.80
38941;DHT22;43236;47.208;7.518;2022-07-31T10:14:14;25.60;83.00
38941;DHT22;43236;47.208;7.518;2022-07-31T10:17:03;25.60;82.60
38941;DHT22;43236;47.208;7.518;2022-07-31T10:19:53;25.70;83.50
38941;DHT22;43236;47.208;7.518;2022-07-31T10:22:46;25.70;81.80
38941;DHT22;43236;47.208;7.518;2022-07-31T10:25:34;25.70;82.70
38941;DHT22;43236;47.208;7.518;2022-07-31T10:28:27;25.80;83.70
38941;DHT22;43236;47.208;7.518;2022-07-31T10:31:14;25.80;83.50
38941;DHT22;43236;47.208;7.518;2022-07-31T10:34:01;25.80;81.70
38941;DHT22;43236;47.208;7.518;2022-07-31T10:36:51;25.80;82.50
38941;DHT22;43236;47.208;7.518;2022-07-31T10:39:44;25.90;80.20
38941;DHT22;43236;47.208;7.518;2022-07-31T10:42:41;25.90;81.50
38941;DHT22;43236;47.208;7.518;2022-07-31T10:45:31;26.10;80.90
38941;DHT22;43236;47.208;7.518;2022-07-31T10:48:19;26.10;81.40
38941;DHT22;43236;47.208;7.518;2022-07-31T10:51:07;26.10;80.30
38941;DHT22;43236;47.208;7.518;2022-07-31T10:53:56;26.10;81.50
38941;DHT22;43236;47.208;7.518;2022-07-31T10:56:44;26.10;81.30
38941;DHT22;43236;47.208;7.518;2022-07-31T10:59:32;26.10;80.30
38941;DHT22;43236;47.208;7.518;2022-07-31T11:02:31;26.10;82.40
38941;DHT22;43236;47.208;7.518;2022-07-31T11:05:20;26.10;81.90
38941;DHT22;43236;47.208;7.518;2022-07-31T11:08:08;26.00;80.30
38941;DHT22;43236;47.208;7.518;2022-07-31T11:10:56;26.10;78.20
38941;DHT22;43236;47.208;7.518;2022-07-31T11:13:47;26.10;80.00
38941;DHT22;43236;47.208;7.518;2022-07-31T11:16:35;26.20;80.40
38941;DHT22;43236;47.208;7.518;2022-07-31T11:19:23;26.20;78.10
38941;DHT22;43236;47.208;7.518;2022-07-31T11:22:11;26.40;79.10
38941;DHT22;43236;47.208;7.518;2022-07-31T11:24:59;26.30;80.00
38941;DHT22;43236;47.208;7.518;2022-07-31T11:27:46;26.30;79.50
38941;DHT22;43236;47.208;7.518;2022-07-31T11:30:33;26.30;79.20
38941;DHT22;43236;47.208;7.518;2022-07-31T11:33:31;26.30;78.60
38941;DHT22;43236;47.208;7.518;2022-07-31T11:36:21;26.30;78.40
38941;DHT22;43236;47.208;7.518;2022-07-31T11:39:11;26.30;78.20
38941;DHT22;43236;47.208;7.518;2022-07-31T11:42:01;26.30;78.40
38941;DHT22;43236;47.208;7.518;2022-07-31T11:44:48;26.20;76.00
38941;DHT22;43236;47.208;7.518;2022-07-31T11:47:38;26.20;76.30
38941;DHT22;43236;47.208;7.518;2022-07-31T11:50:26;26.30;76.90
38941;DHT22;43236;47.208;7.518;2022-07-31T11:53:17;26.30;75.80
38941;DHT22;43236;47.208;7.518;2022-07-31T11:56:04;26.40;77.40
38941;DHT22;43236;47.208;7.518;2022-07-31T11:58:53;26.50;75.70
38941;DHT22;43236;47.208;7.518;2022-07-31T12:01:40;26.60;73.40
38941;DHT22;43236;47.208;7.518;2022-07-31T12:04:28;26.70;74.90
38941;DHT22;43236;47.208;7.518;2022-07-31T12:07:16;26.80;77.00
38941;DHT22;43236;47.208;7.518;2022-07-31T12:10:05;26.80;76.10
38941;DHT22;43236;47.208;7.518;2022-07-31T12:12:53;26.80;77.20
38941;DHT22;43236;47.208;7.518;2022-07-31T12:15:40;26.90;76.00
38941;DHT22;43236;47.208;7.518;2022-07-31T12:18:29;26.90;73.50
38941;DHT22;43236;47.208;7.518;2022-07-31T12:21:17;26.90;73.50
38941;DHT22;43236;47.208;7.518;2022-07-31T12:24:10;26.90;75.90
38941;DHT22;43236;47.208;7.518;2022-07-31T12:26:59;26.90;75.80
38941;DHT22;43236;47.208;7.518;2022-07-31T12:29:46;27.00;76.00
38941;DHT22;43236;47.208;7.518;2022-07-31T12:32:33;27.00;77.40
38941;DHT22;43236;47.208;7.518;2022-07-31T12:35:20;27.10;77.20
38941;DHT22;43236;47.208;7.518;2022-07-31T12:38:07;27.20;76.10
38941;DHT22;43236;47.208;7.518;2022-07-31T12:41:02;27.30;75.60
38941;DHT22;43236;47.208;7.518;2022-07-31T12:43:50;27.40;75.30
38941;DHT22;43236;47.208;7.518;2022-07-31T12:46:37;27.30;72.60
38941;DHT22;43236;47.208;7.518;2022-07-31T12:49:25;27.30;71.00
38941;DHT22;43236;47.208;7.518;2022-07-31T12:52:12;27.30;72.50
38941;DHT22;43236;47.208;7.518;2022-07-31T12:55:00;27.20;71.80
38941;DHT22;43236;47.208;7.518;2022-07-31T12:57:47;27.30;71.90
38941;DHT22;43236;47.208;7.518;2022-07-31T13:00:36;27.20;73.10
38941;DHT22;43236;47.208;7.518;2022-07-31T13:03:23;27.20;75.10
38941;DHT22;43236;47.208;7.518;2022-07-31T13:06:10;27.30;74.70
38941;DHT22;43236;47.208;7.518;2022-07-31T13:08:57;27.40;74.80
38941;DHT22;43236;47.208;7.518;2022-07-31T13:11:44;27.50;72.80
38941;DHT22;43236;47.208;7.518;2022-07-31T13:14:32;27.60;72.10
38941;DHT22;43236;47.208;7.518;2022-07-31T13:17:20;27.60;73.90
38941;DHT22;43236;47.208;7.518;2022-07-31T13:20:08;27.50;73.20
38941;DHT22;43236;47.208;7.518;2022-07-31T13:22:56;27.40;69.80
38941;DHT22;43236;47.208;7.518;2022-07-31T13:25:44;27.40;73.60
38941;DHT22;43236;47.208;7.518;2022-07-31T13:28:32;27.30;70.80
38941;DHT22;43236;47.208;7.518;2022-07-31T13:31:19;27.30;71.70
38941;DHT22;43236;47.208;7.518;2022-07-31T13:34:07;27.30;73.20
38941;DHT22;43236;47.208;7.518;2022-07-31T13:36:55;27.30;73.30
38941;DHT22;43236;47.208;7.518;2022-07-31T13:39:42;27.30;71.30
38941;DHT22;43236;47.208;7.518;2022-07-31T13:42:29;27.30;72.40
38941;DHT22;43236;47.208;7.518;2022-07-31T13:45:16;27.40;71.90
38941;DHT22;43236;47.208;7.518;2022-07-31T13:48:04;27.50;71.80
38941;DHT22;43236;47.208;7.518;2022-07-31T13:50:52;27.60;74.40
38941;DHT22;43236;47.208;7.518;2022-07-31T13:53:39;27.60;72.10
38941;DHT22;43236;47.208;7.518;2022-07-31T13:56:26;27.60;72.10
38941;DHT22;43236;47.208;7.518;2022-07-31T13:59:13;27.60;70.10
38941;DHT22;43236;47.208;7.518;2022-07-31T14:02:01;27.70;71.80
38941;DHT22;43236;47.208;7.518;2022-07-31T14:04:48;27.80;72.80
38941;DHT22;43236;47.208;7.518;2022-07-31T14:07:37;27.80;72.10
38941;DHT22;43236;47.208;7.518;2022-07-31T14:10:24;28.00;71.40
38941;DHT22;43236;47.208;7.518;2022-07-31T14:13:11;28.00;68.80
38941;DHT22;43236;47.208;7.518;2022-07-31T14:15:59;28.10;69.50
38941;DHT22;43236;47.208;7.518;2022-07-31T14:18:46;28.30;69.30
38941;DHT22;43236;47.208;7.518;2022-07-31T14:21:33;28.40;68.70
38941;DHT22;43236;47.208;7.518;2022-07-31T14:24:21;28.40;68.40
38941;DHT22;43236;47.208;7.518;2022-07-31T14:27:08;28.50;68.50
38941;DHT22;43236;47.208;7.518;2022-07-31T14:29:55;28.50;66.20
38941;DHT22;43236;47.208;7.518;2022-07-31T14:32:42;28.50;66.10
38941;DHT22;43236;47.208;7.518;2022-07-31T14:35:30;28.50;67.40
38941;DHT22;43236;47.208;7.518;2022-07-31T14:38:18;28.50;66.40
38941;DHT22;43236;47.208;7.518;2022-07-31T14:41:06;28.40;68.80
38941;DHT22;43236;47.208;7.518;2022-07-31T14:43:53;28.30;68.60
38941;DHT22;43236;47.208;7.518;2022-07-31T14:46:40;28.30;66.10
38941;DHT22;43236;47.208;7.518;2022-07-31T14:49:30;28.30;67.40
38941;DHT22;43236;47.208;7.518;2022-07-31T14:52:18;28.30;69.80
38941;DHT22;43236;47.208;7.518;2022-07-31T14:55:06;28.30;68.00
38941;DHT22;43236;47.208;7.518;2022-07-31T14:57:55;28.30;68.20
38941;DHT22;43236;47.208;7.518;2022-07-31T15:00:43;28.40;68.50
38941;DHT22;43236;47.208;7.518;2022-07-31T15:03:30;28.40;70.00
38941;DHT22;43236;47.208;7.518;2022-07-31T15:06:18;28.40;70.00
38941;DHT22;43236;47.208;7.518;2022-07-31T15:09:06;28.50;70.20
38941;DHT22;43236;47.208;7.518;2022-07-31T15:11:53;28.60;70.70
38941;DHT22;43236;47.208;7.518;2022-07-31T15:14:41;28.60;70.40
38941;DHT22;43236;47.208;7.518;2022-07-31T15:17:28;28.70;70.40
38941;DHT22;43236;47.208;7.518;2022-07-31T15:20:15;28.70;68.70
38941;DHT22;43236;47.208;7.518;2022-07-31T15:23:02;28.70;67.70
38941;DHT22;43236;47.208;7.518;2022-07-31T15:25:49;28.70;69.10
38941;DHT22;43236;47.208;7.518;2022-07-31T15:28:37;28.80;67.40
38941;DHT22;43236;47.208;7.518;2022-07-31T15:31:25;28.70;68.90
38941;DHT22;43236;47.208;7.518;2022-07-31T15:34:12;28.70;69.10
38941;DHT22;43236;47.208;7.518;2022-07-31T15:36:59;28.70;67.60
38941;DHT22;43236;47.208;7.518;2022-07-31T15:39:47;28.70;68.90
38941;DHT22;43236;47.208;7.518;2022-07-31T15:42:35;28.80;67.60
38941;DHT22;43236;47.208;7.518;2022-07-31T15:45:24;28.80;67.50
38941;DHT22;43236;47.208;7.518;2022-07-31T15:48:13;28.70;68.60
38941;DHT22;43236;47.208;7.518;2022-07-31T15:51:00;28.80;67.90
38941;DHT22;43236;47.208;7.518;2022-07-31T15:53:47;28.80;67.80
38941;DHT22;43236;47.208;7.518;2022-07-31T15:56:34;28.90;69.30
38941;DHT22;43236;47.208;7.518;2022-07-31T15:59:21;28.90;66.70
38941;DHT22;43236;47.208;7.518;2022-07-31T16:02:09;29.00;66.70
38941;DHT22;43236;47.208;7.518;2022-07-31T16:04:58;29.00;66.20
38941;DHT22;43236;47.208;7.518;2022-07-31T16:07:45;29.10;67.00
38941;DHT22;43236;47.208;7.518;2022-07-31T16:10:32;29.00;63.60
38941;DHT22;43236;47.208;7.518;2022-07-31T16:13:19;29.00;66.70
38941;DHT22;43236;47.208;7.518;2022-07-31T16:16:06;29.00;65.50
38941;DHT22;43236;47.208;7.518;2022-07-31T16:18:53;29.10;66.50
38941;DHT22;43236;47.208;7.518;2022-07-31T16:21:41;29.20;68.10
38941;DHT22;43236;47.208;7.518;2022-07-31T16:24:28;29.20;67.30
38941;DHT22;43236;47.208;7.518;2022-07-31T16:27:15;29.20;66.60
38941;DHT22;43236;47.208;7.518;2022-07-31T16:30:04;29.40;64.90
38941;DHT22;43236;47.208;7.518;2022-07-31T16:32:52;29.40;65.10
38941;DHT22;43236;47.208;7.518;2022-07-31T16:35:39;29.50;65.50
38941;DHT22;43236;47.208;7.518;2022-07-31T16:38:27;29.60;66.20
38941;DHT22;43236;47.208;7.518;2022-07-31T16:41:14;29.60;62.80
38941;DHT22;43236;47.208;7.518;2022-07-31T16:44:01;29.60;63.50
38941;DHT22;43236;47.208;7.518;2022-07-31T16:46:48;29.50;62.80
38941;DHT22;43236;47.208;7.518;2022-07-31T16:49:36;29.50;63.50
38941;DHT22;43236;47.208;7.518;2022-07-31T16:52:23;29.40;64.80
38941;DHT22;43236;47.208;7.518;2022-07-31T16:55:11;29.40;64.20
38941;DHT22;43236;47.208;7.518;2022-07-31T16:57:59;29.30;65.20
38941;DHT22;43236;47.208;7.518;2022-07-31T17:00:46;29.30;65.80
38941;DHT22;43236;47.208;7.518;2022-07-31T17:03:33;29.10;67.00
38941;DHT22;43236;47.208;7.518;2022-07-31T17:06:20;29.00;66.90
38941;DHT22;43236;47.208;7.518;2022-07-31T17:09:10;28.80;65.70
38941;DHT22;43236;47.208;7.518;2022-07-31T17:11:58;28.70;67.00
38941;DHT22;43236;47.208;7.518;2022-07-31T17:14:45;28.60;68.10
38941;DHT22;43236;47.208;7.518;2022-07-31T17:17:33;28.50;68.00
38941;DHT22;43236;47.208;7.518;2022-07-31T17:20:20;28.40;67.40
38941;DHT22;43236;47.208;7.518;2022-07-31T17:23:09;28.80;69.00
38941;DHT22;43236;47.208;7.518;2022-07-31T17:25:56;28.80;68.80
38941;DHT22;43236;47.208;7.518;2022-07-31T17:28:44;28.70;68.70
38941;DHT22;43236;47.208;7.518;2022-07-31T17:31:31;28.60;69.30
38941;DHT22;43236;47.208;7.518;2022-07-31T17:34:18;29.90;69.90
38941;DHT22;43236;47.208;7.518;2022-07-31T17:37:05;31.20;67.90
38941;DHT22;43236;47.208;7.518;2022-07-31T17:39:52;32.50;66.40
38941;DHT22;43236;47.208;7.518;2022-07-31T17:42:41;33.50;64.40